Delray Beach, FL (33448)

9:53 AM EDT on September 02, 2015 (GMT -0400)
Danny B at Four Seasons | | Change Station
CLOSE
Current Station
Personal Weather Station
Location: Delray Beach, FL
Elevation: 23 ft
Nearby Weather Stations

Elev 23 ft 26.46 °N, 80.20 °W | Updated 3 minutes ago

Partly Cloudy
Partly Cloudy
85.1 °F
Feels Like 99 °F
N
6.0
Wind Variable Wind from ESE

Today
High -- | Low -- °F
--% Chance of Precip.
Yesterday
High -- | Low -- °F
Precip. -- in
7:00 AM 7:39 PM
Waning Gibbous, 80% visible
Pressure 30.09 in
Visibility 10.0 miles
Clouds Few 2100 ft
Scattered Clouds 3400 ft
Mostly Cloudy 5500 ft
Heat Index 99 °F
Dew Point 80 °F
Humidity 85%
Rainfall 0.00 in
Snow Depth Not available.
UV 3 out of 12
Pollen 4.70 out of 12
Air Quality Not available.
Flu Activity Not available.
SPECI KPMP 021335Z 16005KT 10SM -TSRA FEW021 SCT034 BKN055 28/24 A3009 RMK AO2 LTG DSNT S RAB24 TSB29 P0000 T02830239
Pressure 30.09 in
Visibility 10.0 miles
Clouds Few 2100 ft
Scattered Clouds 3400 ft
Mostly Cloudy 5500 ft
Heat Index 99 °F
Dew Point 80 °F
Humidity 85%
Rainfall 0.00 in
Snow Depth Not available.
UV 3 out of 12
Pollen 4.70 out of 12
Air Quality Not available.
Flu Activity Not available.
SPECI KPMP 021335Z 16005KT 10SM -TSRA FEW021 SCT034 BKN055 28/24 A3009 RMK AO2 LTG DSNT S RAB24 TSB29 P0000 T02830239

10-Day Weather Forecast

×

Almanac

Astronomy

Sep. 02, 2015 Rise Set
Actual Time
Civil Twilight
Nautical Twilight
Astronomical Twilight
Moon
Length of Visible Light
Length of Day
Tomorrow will be .
, % of the Moon is Illuminated

Today's Extremes

State Highs State Lows

Community

WunderPhotos

Upload Photos

1,851,754 photos uploaded!

WunderBlogs® & News

Nearby

Air Quality

  Air Quality AQ Index Pollutant
Not available.

Snow Depth

Station Depth Elevation

Earthquake Activity

City Distance Mag. Time & Date
Minimum magnitude displayed is 2.5.

Coastal Water Temperatures

Place Temperature

Stations

Nearby Weather Stations

Station Location Temp. Windchill Dew Point Humidity Wind Precip. Elev Updated Type